Geary, Oklahoma
Current Conditions -  °F | °C
As of 11:35 AM on Thursday 30 Oct 2014 (Local Time) from KJWG Reporting Station
Clear Clear  
Wind Chill: 68°   Ceiling: Unl
Heat Index: 68°   Visibility: 10mi
Dew Point: 45°   Wind: 14mph
Humidity: 43%   Direction: 350°N
Pressure: 30.18"   Gusts: 18mph
Location:  35.63°N, 98.32°W
Report Text: KJWG 301635Z AUTO 35012G16KT 10SM CLR 20/07 A3018 RMK AO2 T02010070
Loading
Personal Weather Stations






























Interactive Weather Map
Tropical Storm Tracking
New forecast layout! Learn more

10-Day Weather Forecast

Advertisements
Track Severe Weather on mobile